Time;durP1;ratioP1;P1;durP2;ratioP2;P2;SDS_P1;SDS_P2;PMS_P1;PMS_P2;Temp;Humidity;BMP_temperature;BMP_pressure;BME280_temperature;BME280_humidity;BME280_pressure;Samples;Min_cycle;Max_cycle;Signal;HPM_P1;HPM_P2
2023/10/22 00:00:10;;;;;;;0.10;0.10;;;18.10;52.10;;;;;;5071750;28;20685;-44
2023/10/22 00:02:41;;;;;;;0.10;0.10;;;18.10;52.10;;;;;;5071510;28;20203;-44
2023/10/22 00:05:12;;;;;;;0.10;0.10;;;18.10;52.20;;;;;;5089540;28;20198;-45
2023/10/22 00:07:43;;;;;;;0.10;0.10;;;18.10;52.10;;;;;;5091857;28;20198;-45
2023/10/22 00:10:13;;;;;;;0.00;0.00;;;18.10;52.20;;;;;;5091873;28;20190;-44
2023/10/22 00:12:44;;;;;;;0.10;0.10;;;18.10;52.20;;;;;;5091516;28;20203;-45
2023/10/22 00:15:16;;;;;;;0.10;0.10;;;18.10;52.20;;;;;;5091782;28;20202;-45
2023/10/22 00:17:47;;;;;;;0.10;0.10;;;18.10;52.20;;;;;;5091709;28;20205;-46
2023/10/22 00:20:19;;;;;;;0.00;0.00;;;18.10;52.20;;;;;;5091616;28;20255;-47
2023/10/22 00:22:49;;;;;;;0.10;0.10;;;18.10;52.10;;;;;;5091179;28;20186;-46
2023/10/22 00:25:20;;;;;;;0.00;0.00;;;18.10;52.20;;;;;;5092035;28;20209;-46
2023/10/22 00:27:51;;;;;;;0.00;0.00;;;18.10;52.20;;;;;;5091893;28;20194;-44
2023/10/22 00:30:24;;;;;;;0.08;0.08;;;18.10;52.20;;;;;;5091797;28;20197;-47
2023/10/22 00:32:55;;;;;;;0.08;0.08;;;18.20;52.30;;;;;;5091946;28;20202;-45
2023/10/22 00:35:25;;;;;;;0.10;0.10;;;18.20;52.20;;;;;;5071274;28;20202;-46
2023/10/22 00:37:56;;;;;;;0.00;0.00;;;18.20;52.30;;;;;;5071430;28;20199;-46
2023/10/22 00:40:27;;;;;;;0.10;0.10;;;18.20;52.20;;;;;;5071353;28;20222;-46
2023/10/22 00:42:58;;;;;;;0.10;0.10;;;18.20;52.20;;;;;;5071550;28;20202;-45
2023/10/22 00:45:38;;;;;;;0.10;0.10;;;18.20;52.20;;;;;;5071487;28;20205;-45
2023/10/22 00:48:11;;;;;;;0.10;0.10;;;18.20;52.20;;;;;;5071189;28;20288;-46
2023/10/22 00:50:41;;;;;;;0.10;0.10;;;18.30;52.30;;;;;;5071457;28;20629;-45
2023/10/22 00:53:14;;;;;;;0.10;0.10;;;18.30;52.30;;;;;;5070494;28;20201;-46
2023/10/22 00:55:47;;;;;;;0.15;0.15;;;18.30;52.30;;;;;;5087480;28;20251;-45
2023/10/22 00:58:19;;;;;;;0.10;0.10;;;18.30;52.40;;;;;;5091126;28;20214;-46
2023/10/22 01:00:51;;;;;;;0.10;0.10;;;18.30;52.30;;;;;;5090452;28;20229;-47
2023/10/22 01:03:22;;;;;;;0.10;0.10;;;18.30;52.30;;;;;;5090717;28;20206;-48
2023/10/22 01:05:53;;;;;;;0.20;0.20;;;18.30;52.50;;;;;;5091046;28;20194;-44
2023/10/22 01:08:23;;;;;;;0.10;0.10;;;18.30;52.30;;;;;;5091271;28;20708;-45
2023/10/22 01:10:54;;;;;;;0.10;0.10;;;18.30;52.30;;;;;;5094922;28;20209;-46
2023/10/22 01:13:25;;;;;;;0.10;0.10;;;18.30;52.30;;;;;;5095300;28;20194;-44
2023/10/22 01:15:57;;;;;;;0.00;0.00;;;18.30;52.30;;;;;;5095389;28;20194;-45
2023/10/22 01:18:28;;;;;;;0.10;0.10;;;18.30;52.30;;;;;;5091374;28;20676;-46
2023/10/22 01:20:59;;;;;;;0.10;0.10;;;18.30;52.20;;;;;;5095055;28;20230;-45
2023/10/22 01:23:31;;;;;;;0.00;0.00;;;18.30;52.80;;;;;;5095026;28;20198;-45
2023/10/22 01:26:02;;;;;;;0.10;0.10;;;18.30;52.20;;;;;;5094974;28;20285;-45
2023/10/22 01:28:33;;;;;;;0.00;0.00;;;18.30;52.20;;;;;;5094962;28;20689;-46
2023/10/22 01:31:04;;;;;;;0.10;0.10;;;18.30;52.20;;;;;;5094788;28;20209;-44
2023/10/22 01:33:35;;;;;;;0.10;0.10;;;18.30;52.30;;;;;;5093992;28;20205;-47
2023/10/22 01:36:06;;;;;;;0.10;0.10;;;18.30;52.30;;;;;;5094696;28;20197;-46
2023/10/22 01:38:38;;;;;;;0.05;0.05;;;18.30;52.30;;;;;;5095017;28;20680;-46
2023/10/22 01:41:10;;;;;;;0.10;0.10;;;18.30;52.30;;;;;;5094734;28;20230;-46
2023/10/22 01:43:41;;;;;;;0.10;0.10;;;18.40;52.30;;;;;;5094559;28;20230;-46
2023/10/22 01:46:11;;;;;;;0.10;0.10;;;18.40;52.40;;;;;;5094417;28;20193;-46
2023/10/22 01:48:42;;;;;;;0.10;0.10;;;18.40;52.40;;;;;;5094478;28;20214;-47
2023/10/22 01:51:13;;;;;;;0.10;0.10;;;18.40;52.40;;;;;;5095233;28;20201;-45
2023/10/22 01:53:46;;;;;;;0.08;0.08;;;18.40;52.40;;;;;;5094480;28;20202;-46
2023/10/22 01:56:16;;;;;;;0.10;0.10;;;18.40;52.30;;;;;;5094564;28;20194;-47
2023/10/22 01:58:47;;;;;;;0.00;0.00;;;18.40;52.30;;;;;;5094346;28;20210;-44
2023/10/22 02:01:18;;;;;;;0.00;0.00;;;18.40;52.30;;;;;;5094061;28;20217;-45
2023/10/22 02:03:49;;;;;;;0.10;0.10;;;18.40;52.30;;;;;;5087044;28;20218;-44
2023/10/22 02:06:19;;;;;;;0.10;0.10;;;18.40;52.30;;;;;;5074158;28;20673;-46
2023/10/22 02:08:52;;;;;;;0.10;0.10;;;18.40;52.30;;;;;;5074054;28;20230;-46
2023/10/22 02:11:23;;;;;;;0.10;0.10;;;18.40;52.30;;;;;;5073676;28;20191;-46
2023/10/22 02:13:54;;;;;;;0.05;0.05;;;18.40;52.30;;;;;;5073693;28;20541;-45
2023/10/22 02:16:25;;;;;;;0.00;0.00;;;18.40;52.30;;;;;;5073594;28;20592;-47
2023/10/22 02:18:56;;;;;;;0.10;0.10;;;18.40;52.30;;;;;;5073211;28;20254;-45
2023/10/22 02:21:27;;;;;;;0.10;0.10;;;18.40;52.30;;;;;;5072670;28;20229;-45
2023/10/22 02:24:00;;;;;;;0.10;0.10;;;18.40;52.30;;;;;;5073511;28;20228;-45
2023/10/22 02:26:31;;;;;;;0.00;0.00;;;18.40;52.30;;;;;;5073856;28;20199;-47
2023/10/22 02:29:01;;;;;;;0.03;0.03;;;18.50;52.30;;;;;;5086944;28;20206;-47
2023/10/22 02:31:32;;;;;;;0.00;0.00;;;18.50;52.30;;;;;;5093837;28;20195;-47
2023/10/22 02:34:07;;;;;;;0.00;0.00;;;18.50;52.30;;;;;;5093253;28;20194;-45
2023/10/22 02:36:38;;;;;;;0.10;0.10;;;18.50;52.30;;;;;;5093178;28;20665;-46
2023/10/22 02:39:11;;;;;;;0.10;0.10;;;18.50;52.20;;;;;;5093211;28;20237;-47
2023/10/22 02:41:42;;;;;;;0.10;0.10;;;18.50;52.30;;;;;;5093214;28;20267;-46
2023/10/22 02:44:13;;;;;;;0.00;0.00;;;18.50;52.20;;;;;;5092528;28;20198;-45
2023/10/22 02:46:43;;;;;;;0.00;0.00;;;18.50;52.20;;;;;;5092502;28;20202;-45
2023/10/22 02:49:14;;;;;;;0.08;0.08;;;18.50;52.20;;;;;;5092932;28;20214;-44
2023/10/22 02:51:44;;;;;;;0.10;0.10;;;18.50;52.20;;;;;;5093917;28;20198;-45
2023/10/22 02:54:17;;;;;;;0.10;0.10;;;18.50;52.20;;;;;;5093093;28;20205;-46
2023/10/22 02:56:48;;;;;;;0.00;0.00;;;18.50;52.20;;;;;;5093031;28;20217;-47
2023/10/22 02:59:18;;;;;;;0.00;0.00;;;18.50;52.10;;;;;;5092603;28;20210;-46
2023/10/22 03:01:49;;;;;;;0.10;0.10;;;18.50;52.20;;;;;;5089579;28;20221;-49
2023/10/22 03:04:19;;;;;;;0.10;0.10;;;18.50;52.20;;;;;;5092519;28;20210;-51
2023/10/22 03:06:50;;;;;;;0.00;0.00;;;18.50;52.20;;;;;;5092904;28;20194;-48
2023/10/22 03:09:23;;;;;;;0.10;0.10;;;18.60;52.20;;;;;;5092958;28;20210;-47
2023/10/22 03:11:53;;;;;;;0.10;0.10;;;18.60;52.20;;;;;;5092913;28;20198;-48
2023/10/22 03:14:24;;;;;;;0.00;0.00;;;18.60;52.20;;;;;;5092976;28;20554;-48
2023/10/22 03:16:56;;;;;;;0.10;0.10;;;18.60;52.10;;;;;;5092700;28;20201;-51
2023/10/22 03:19:27;;;;;;;0.03;0.03;;;18.60;52.10;;;;;;5092578;28;20321;-46
2023/10/22 03:21:58;;;;;;;0.00;0.00;;;18.60;52.30;;;;;;5092607;28;20226;-46
2023/10/22 03:24:31;;;;;;;0.00;0.00;;;18.70;52.50;;;;;;5089324;28;20201;-46
2023/10/22 03:27:04;;;;;;;0.00;0.00;;;18.70;52.40;;;;;;5092740;28;20270;-45
2023/10/22 03:29:34;;;;;;;0.00;0.00;;;18.70;52.30;;;;;;5092520;28;20594;-46
2023/10/22 03:32:05;;;;;;;0.10;0.10;;;18.70;52.30;;;;;;5092647;28;20218;-49
2023/10/22 03:34:36;;;;;;;0.13;0.13;;;18.70;52.30;;;;;;5091481;28;20198;-46
2023/10/22 03:37:08;;;;;;;0.00;0.00;;;18.70;52.30;;;;;;5092618;28;20204;-50
2023/10/22 03:39:41;;;;;;;0.10;0.10;;;18.70;52.20;;;;;;5092523;28;20719;-47
2023/10/22 03:42:12;;;;;;;0.10;0.10;;;18.70;52.30;;;;;;5092268;28;20226;-49
2023/10/22 03:44:42;;;;;;;0.10;0.10;;;18.70;52.20;;;;;;5092505;28;20201;-48
2023/10/22 03:47:13;;;;;;;0.03;0.03;;;18.70;52.20;;;;;;5092353;28;20198;-45
2023/10/22 03:49:44;;;;;;;0.10;0.10;;;18.70;52.10;;;;;;5091989;28;20213;-44
2023/10/22 03:52:14;;;;;;;0.10;0.10;;;18.70;52.20;;;;;;5092882;28;20355;-44
2023/10/22 03:54:47;;;;;;;0.10;0.10;;;18.80;52.30;;;;;;5092191;28;20194;-46
2023/10/22 03:57:18;;;;;;;0.10;0.10;;;18.80;52.30;;;;;;5087952;28;20866;-44
2023/10/22 03:59:48;;;;;;;0.10;0.10;;;18.80;52.40;;;;;;5081440;28;20206;-44
2023/10/22 04:02:19;;;;;;;0.10;0.10;;;18.90;52.40;;;;;;5081473;28;20284;-47
2023/10/22 04:04:50;;;;;;;0.03;0.03;;;18.90;52.40;;;;;;5077289;28;20193;-44
2023/10/22 04:07:20;;;;;;;0.10;0.10;;;18.90;52.30;;;;;;5112593;28;20198;-44
2023/10/22 04:09:54;;;;;;;0.10;0.10;;;18.90;52.30;;;;;;5111003;28;20213;-44
2023/10/22 04:12:25;;;;;;;0.00;0.00;;;19.00;52.30;;;;;;5098312;28;20280;-46
2023/10/22 04:14:55;;;;;;;0.00;0.00;;;19.00;52.30;;;;;;5090778;28;21124;-46
2023/10/22 04:17:26;;;;;;;0.10;0.10;;;19.00;52.20;;;;;;5091723;28;20337;-46
2023/10/22 04:19:58;;;;;;;0.10;0.10;;;19.00;52.10;;;;;;5089287;28;20681;-44
2023/10/22 04:22:29;;;;;;;0.10;0.10;;;19.10;52.10;;;;;;5090662;28;20187;-45
2023/10/22 04:25:02;;;;;;;0.10;0.10;;;19.10;52.00;;;;;;5090830;28;20194;-45
2023/10/22 04:27:32;;;;;;;0.00;0.00;;;19.10;52.00;;;;;;5091115;28;20191;-45
2023/10/22 04:30:04;;;;;;;0.10;0.10;;;19.10;52.20;;;;;;5090622;28;20182;-45
2023/10/22 04:32:36;;;;;;;0.00;0.00;;;19.10;51.90;;;;;;5090661;28;20281;-46
2023/10/22 04:35:07;;;;;;;0.10;0.10;;;19.10;51.80;;;;;;5091372;28;20198;-45
2023/10/22 04:37:37;;;;;;;0.10;0.10;;;19.10;51.80;;;;;;5090339;28;20194;-44
2023/10/22 04:40:11;;;;;;;0.10;0.10;;;19.00;51.70;;;;;;5091126;28;20193;-43
2023/10/22 04:42:42;;;;;;;0.10;0.10;;;19.00;51.70;;;;;;5090898;28;20190;-46
2023/10/22 04:45:13;;;;;;;0.10;0.10;;;19.00;51.60;;;;;;5093443;28;20193;-44
2023/10/22 04:47:44;;;;;;;0.08;0.08;;;19.00;51.60;;;;;;5094719;28;20648;-45
2023/10/22 04:50:14;;;;;;;0.10;0.10;;;19.00;51.70;;;;;;5094258;28;20182;-46
2023/10/22 04:52:47;;;;;;;0.10;0.10;;;19.00;51.70;;;;;;5086787;28;20198;-46
2023/10/22 04:55:20;;;;;;;0.03;0.03;;;19.00;51.70;;;;;;5076599;28;20201;-43
2023/10/22 04:57:51;;;;;;;0.10;0.10;;;19.00;51.70;;;;;;5074468;28;20195;-44
2023/10/22 05:00:21;;;;;;;0.10;0.10;;;19.00;51.60;;;;;;5078071;28;20186;-46
2023/10/22 05:02:52;;;;;;;0.10;0.10;;;19.00;51.60;;;;;;5092811;28;20209;-44
2023/10/22 05:05:23;;;;;;;0.10;0.10;;;19.00;51.60;;;;;;5077808;28;20194;-44
2023/10/22 05:07:54;;;;;;;0.10;0.10;;;19.00;51.60;;;;;;5093848;28;20194;-45
2023/10/22 05:10:26;;;;;;;0.10;0.10;;;19.00;51.50;;;;;;5095377;28;20194;-44
2023/10/22 05:13:00;;;;;;;0.05;0.05;;;19.00;51.50;;;;;;5094723;28;20198;-44
2023/10/22 05:15:31;;;;;;;0.00;0.00;;;19.00;51.50;;;;;;5095197;28;20646;-44
2023/10/22 05:18:01;;;;;;;0.10;0.10;;;19.00;51.40;;;;;;5094003;28;20575;-46
2023/10/22 05:20:32;;;;;;;0.10;0.10;;;18.90;51.30;;;;;;5094230;28;20277;-45
2023/10/22 05:23:05;;;;;;;0.10;0.10;;;19.00;51.30;;;;;;5094215;28;20190;-43
2023/10/22 05:25:38;;;;;;;0.10;0.10;;;18.90;51.30;;;;;;5094022;28;20598;-46
2023/10/22 05:28:09;;;;;;;0.10;0.10;;;18.90;51.20;;;;;;5092833;28;20506;-46
2023/10/22 05:30:38;;;;;;;0.05;0.05;;;18.90;51.20;;;;;;5094044;28;20658;-47
2023/10/22 05:33:08;;;;;;;0.00;0.00;;;18.90;51.20;;;;;;5090305;28;20298;-44
2023/10/22 05:35:39;;;;;;;0.10;0.10;;;18.90;51.20;;;;;;5094137;28;20197;-44
2023/10/22 05:38:10;;;;;;;0.10;0.10;;;18.90;51.20;;;;;;5094792;28;20214;-44
2023/10/22 05:40:42;;;;;;;0.10;0.10;;;18.90;51.20;;;;;;5093748;28;20197;-44
2023/10/22 05:43:13;;;;;;;0.08;0.08;;;18.90;51.20;;;;;;5094073;28;20198;-45
2023/10/22 05:45:44;;;;;;;0.10;0.10;;;18.90;51.20;;;;;;5093927;28;20194;-45
2023/10/22 05:48:14;;;;;;;0.10;0.10;;;18.90;51.10;;;;;;5093549;28;20214;-46
2023/10/22 05:50:45;;;;;;;0.10;0.10;;;18.90;51.20;;;;;;5093318;28;20194;-45
2023/10/22 05:53:16;;;;;;;0.10;0.10;;;18.90;51.20;;;;;;5081758;28;20191;-44
2023/10/22 05:55:57;;;;;;;0.10;0.10;;;18.90;51.10;;;;;;5086012;28;20190;-45
2023/10/22 05:58:28;;;;;;;0.10;0.10;;;18.90;51.10;;;;;;5093085;28;20218;-44
2023/10/22 06:00:59;;;;;;;0.00;0.00;;;18.80;51.00;;;;;;5094304;28;20566;-45
2023/10/22 06:03:30;;;;;;;0.10;0.10;;;18.80;51.00;;;;;;5092813;28;20206;-44
2023/10/22 06:06:01;;;;;;;0.10;0.10;;;18.80;51.10;;;;;;5094220;28;20189;-45
2023/10/22 06:08:31;;;;;;;0.10;0.10;;;18.80;51.00;;;;;;5092591;28;20210;-45
2023/10/22 06:11:06;;;;;;;0.10;0.10;;;18.80;51.00;;;;;;5093425;28;20557;-45
2023/10/22 06:13:37;;;;;;;0.00;0.00;;;18.80;51.10;;;;;;5093454;28;20189;-45
2023/10/22 06:16:07;;;;;;;0.20;0.20;;;18.80;51.00;;;;;;5093416;28;20668;-42
2023/10/22 06:18:38;;;;;;;0.00;0.00;;;18.80;51.00;;;;;;5092204;28;20716;-46
2023/10/22 06:21:16;;;;;;;0.10;0.10;;;18.80;51.00;;;;;;5098461;28;20256;-45
2023/10/22 06:23:46;;;;;;;0.10;0.10;;;18.80;51.00;;;;;;5095219;28;20194;-46
2023/10/22 06:26:19;;;;;;;0.10;0.10;;;18.70;51.00;;;;;;5099457;28;20186;-46
2023/10/22 06:28:51;;;;;;;0.10;0.10;;;18.70;51.00;;;;;;5112936;28;20410;-43
2023/10/22 06:31:23;;;;;;;0.10;0.10;;;18.70;51.00;;;;;;5113014;28;20201;-46
2023/10/22 06:33:53;;;;;;;0.10;0.10;;;18.70;51.00;;;;;;5098517;28;20663;-43
2023/10/22 06:36:24;;;;;;;0.10;0.10;;;18.70;51.00;;;;;;5090807;28;20703;-45
2023/10/22 06:38:55;;;;;;;0.10;0.10;;;18.70;51.00;;;;;;5093649;28;20210;-46
2023/10/22 06:41:28;;;;;;;0.10;0.10;;;18.70;50.90;;;;;;5093061;28;20225;-46
2023/10/22 06:43:58;;;;;;;0.10;0.10;;;18.70;50.90;;;;;;5092736;28;20190;-45
2023/10/22 06:46:29;;;;;;;0.10;0.10;;;18.70;50.90;;;;;;5092851;28;20676;-44
2023/10/22 06:49:00;;;;;;;0.05;0.05;;;18.70;51.00;;;;;;5091290;28;20798;-46
2023/10/22 06:51:30;;;;;;;0.08;0.08;;;18.70;51.00;;;;;;5088900;28;20198;-44
2023/10/22 06:54:01;;;;;;;0.03;0.03;;;18.70;50.90;;;;;;5084870;28;20197;-44
2023/10/22 06:56:34;;;;;;;0.10;0.10;;;18.70;51.00;;;;;;5093160;28;20645;-44
2023/10/22 06:59:04;;;;;;;0.03;0.03;;;18.70;51.00;;;;;;5091926;28;20219;-47
2023/10/22 07:01:35;;;;;;;0.10;0.10;;;18.70;51.00;;;;;;5092635;28;20251;-45
2023/10/22 07:04:06;;;;;;;0.10;0.10;;;18.70;51.00;;;;;;5090564;28;20645;-46
2023/10/22 07:06:37;;;;;;;0.08;0.08;;;18.60;50.90;;;;;;5092986;28;20190;-44
2023/10/22 07:09:08;;;;;;;0.10;0.10;;;18.70;51.00;;;;;;5091778;28;20233;-45
2023/10/22 07:11:43;;;;;;;0.10;0.10;;;18.60;50.90;;;;;;5092425;28;20247;-47
2023/10/22 07:14:13;;;;;;;0.10;0.10;;;18.60;51.00;;;;;;5092937;28;20198;-44
2023/10/22 07:16:47;;;;;;;0.20;0.20;;;18.70;51.00;;;;;;5092753;28;20194;-48
2023/10/22 07:19:18;;;;;;;0.10;0.10;;;18.60;51.00;;;;;;5091918;28;20214;-46
2023/10/22 07:21:48;;;;;;;0.00;0.00;;;18.60;50.90;;;;;;5092295;28;20226;-44
2023/10/22 07:24:19;;;;;;;0.00;0.00;;;18.60;51.00;;;;;;5092747;28;20708;-45
2023/10/22 07:26:52;;;;;;;0.10;0.10;;;18.60;50.90;;;;;;5092818;28;20555;-44
2023/10/22 07:29:22;;;;;;;0.10;0.10;;;18.60;50.90;;;;;;5092639;28;20222;-44
2023/10/22 07:31:54;;;;;;;0.10;0.10;;;18.60;50.90;;;;;;5089251;28;20194;-47
2023/10/22 07:34:25;;;;;;;0.10;0.10;;;18.60;51.50;;;;;;5091832;28;20205;-44
2023/10/22 07:36:55;;;;;;;0.10;0.10;;;18.60;50.90;;;;;;5092346;28;20225;-44
2023/10/22 07:39:26;;;;;;;0.10;0.10;;;18.60;50.90;;;;;;5092379;28;20233;-45
2023/10/22 07:41:59;;;;;;;0.00;0.00;;;18.60;50.90;;;;;;5092108;28;20226;-44
2023/10/22 07:44:29;;;;;;;0.10;0.10;;;18.60;50.90;;;;;;5091837;28;20198;-45
2023/10/22 07:47:00;;;;;;;0.10;0.10;;;18.60;51.00;;;;;;5091589;28;20194;-44
2023/10/22 07:49:31;;;;;;;0.05;0.05;;;18.60;51.30;;;;;;5091506;28;20209;-44
2023/10/22 07:52:01;;;;;;;0.10;0.10;;;18.60;54.20;;;;;;5092547;28;20190;-45
2023/10/22 07:54:32;;;;;;;0.10;0.10;;;18.50;50.30;;;;;;5092087;28;20202;-45
2023/10/22 07:57:05;;;;;;;0.10;0.10;;;18.50;50.90;;;;;;5092414;28;20197;-46
2023/10/22 07:59:35;;;;;;;0.10;0.10;;;18.50;50.80;;;;;;5092069;28;20226;-45
2023/10/22 08:02:06;;;;;;;0.10;0.10;;;18.60;50.90;;;;;;5091812;28;20218;-45
2023/10/22 08:04:37;;;;;;;0.10;0.10;;;18.50;50.80;;;;;;5078120;28;20207;-45
2023/10/22 08:07:08;;;;;;;0.10;0.10;;;18.50;50.80;;;;;;5071353;28;20259;-45
2023/10/22 08:09:38;;;;;;;0.10;0.10;;;18.50;50.80;;;;;;5071609;28;20222;-44
2023/10/22 08:12:11;;;;;;;0.10;0.10;;;18.50;50.80;;;;;;5071815;28;20191;-47
2023/10/22 08:14:42;;;;;;;0.10;0.10;;;18.50;50.80;;;;;;5071672;28;20195;-47
2023/10/22 08:17:13;;;;;;;0.10;0.10;;;18.50;50.80;;;;;;5077585;28;20197;-44
2023/10/22 08:19:43;;;;;;;0.03;0.03;;;18.50;50.80;;;;;;5091169;28;20214;-45
2023/10/22 08:22:14;;;;;;;0.00;0.00;;;18.50;50.80;;;;;;5092015;28;20221;-46
2023/10/22 08:24:48;;;;;;;0.10;0.10;;;18.50;50.80;;;;;;5091786;28;20201;-46
2023/10/22 08:27:20;;;;;;;0.10;0.10;;;18.50;50.80;;;;;;5091841;28;20194;-45
2023/10/22 08:29:51;;;;;;;0.10;0.10;;;18.50;50.80;;;;;;5091761;28;20221;-44
2023/10/22 08:32:22;;;;;;;0.10;0.10;;;18.40;50.80;;;;;;5091503;28;20197;-47
2023/10/22 08:34:52;;;;;;;0.10;0.10;;;18.50;50.80;;;;;;5084617;28;20187;-47
2023/10/22 08:37:23;;;;;;;0.10;0.10;;;18.40;50.80;;;;;;5072279;28;20197;-45
2023/10/22 08:39:54;;;;;;;0.10;0.10;;;18.40;50.80;;;;;;5080336;28;20214;-47
2023/10/22 08:42:28;;;;;;;0.10;0.10;;;18.40;50.80;;;;;;5070333;28;20233;-48
2023/10/22 08:44:59;;;;;;;0.03;0.03;;;18.40;50.80;;;;;;5076109;28;20189;-47
2023/10/22 08:47:30;;;;;;;0.13;0.13;;;18.40;50.80;;;;;;5074982;28;20182;-45
2023/10/22 08:50:01;;;;;;;0.10;0.10;;;18.40;50.90;;;;;;5090880;28;20224;-46
2023/10/22 08:52:32;;;;;;;0.10;0.10;;;18.40;50.80;;;;;;5087207;28;20195;-45
2023/10/22 08:55:03;;;;;;;0.10;0.10;;;18.40;50.80;;;;;;5074476;28;20199;-43
2023/10/22 08:57:35;;;;;;;0.13;0.13;;;18.40;50.80;;;;;;5069005;28;20598;-47
2023/10/22 09:00:09;;;;;;;0.10;0.10;;;18.40;50.80;;;;;;5081464;28;20187;-47
2023/10/22 09:02:40;;;;;;;0.10;0.10;;;18.40;50.80;;;;;;5090075;28;20689;-46
2023/10/22 09:05:12;;;;;;;0.10;0.10;;;18.40;50.80;;;;;;5082916;28;20194;-46
2023/10/22 09:07:53;;;;;;;0.10;0.10;;;18.40;50.80;;;;;;5090624;28;20216;-46
2023/10/22 09:10:31;;;;;;;0.10;0.10;;;18.40;50.80;;;;;;5076980;28;20194;-47
2023/10/22 09:13:20;;;;;;;0.10;0.10;;;18.40;50.80;;;;;;5076474;28;20276;-46
2023/10/22 09:15:52;;;;;;;0.00;0.00;;;18.40;50.80;;;;;;5097119;28;20197;-43
2023/10/22 09:18:23;;;;;;;0.10;0.10;;;18.30;50.70;;;;;;5090659;28;20586;-47
2023/10/22 09:20:53;;;;;;;0.10;0.10;;;18.30;50.70;;;;;;5090336;28;20646;-47
2023/10/22 09:23:25;;;;;;;0.10;0.10;;;18.30;50.70;;;;;;5090152;28;20222;-44
2023/10/22 09:25:58;;;;;;;0.00;0.00;;;18.30;50.80;;;;;;5090786;28;20198;-47
2023/10/22 09:28:31;;;;;;;0.10;0.10;;;18.30;50.80;;;;;;5089811;28;20617;-46
2023/10/22 09:31:02;;;;;;;0.10;0.10;;;18.30;50.80;;;;;;5092078;28;20575;-46
2023/10/22 09:33:37;;;;;;;0.10;0.10;;;18.30;50.80;;;;;;5093594;28;20198;-46
2023/10/22 09:36:08;;;;;;;0.10;0.10;;;18.30;50.80;;;;;;5090253;28;20193;-44
2023/10/22 09:38:46;;;;;;;0.08;0.08;;;18.30;50.80;;;;;;5093389;28;20222;-47
2023/10/22 09:41:27;;;;;;;0.10;0.10;;;18.30;50.80;;;;;;5111772;28;20217;-46
2023/10/22 09:44:00;;;;;;;0.00;0.00;;;18.30;50.80;;;;;;5093514;28;20218;-44
2023/10/22 09:46:32;;;;;;;0.15;0.15;;;18.30;50.80;;;;;;5093428;28;20190;-46
2023/10/22 09:49:04;;;;;;;0.10;0.10;;;18.30;50.80;;;;;;5093784;28;20309;-47
2023/10/22 09:51:37;;;;;;;0.10;0.10;;;18.30;50.80;;;;;;5094542;28;20199;-44
2023/10/22 09:54:09;;;;;;;0.10;0.10;;;18.30;50.80;;;;;;5093153;28;20194;-46
2023/10/22 09:56:46;;;;;;;0.10;0.10;;;18.30;50.80;;;;;;5073369;28;20605;-45
2023/10/22 09:59:22;;;;;;;0.10;0.10;;;18.30;50.80;;;;;;5089458;28;20221;-46
2023/10/22 10:01:53;;;;;;;0.10;0.10;;;18.30;50.80;;;;;;5092792;28;20193;-46
2023/10/22 10:04:25;;;;;;;0.00;0.00;;;18.30;50.80;;;;;;5093306;28;20214;-47
2023/10/22 10:06:56;;;;;;;0.10;0.10;;;18.20;50.70;;;;;;5093139;28;20198;-47
2023/10/22 10:09:28;;;;;;;0.10;0.10;;;18.30;50.90;;;;;;5091742;28;20210;-46
2023/10/22 10:12:01;;;;;;;0.00;0.00;;;18.30;50.90;;;;;;5092587;28;20204;-45
2023/10/22 10:14:51;;;;;;;0.03;0.03;;;18.30;50.80;;;;;;5094209;28;20209;-46
2023/10/22 10:17:23;;;;;;;0.10;0.10;;;18.20;50.80;;;;;;5113063;28;20197;-46
2023/10/22 10:19:54;;;;;;;0.00;0.00;;;18.20;50.70;;;;;;5097816;28;20267;-46
2023/10/22 10:22:45;;;;;;;0.00;0.00;;;18.30;50.80;;;;;;5108814;28;20218;-47
2023/10/22 10:25:31;;;;;;;0.10;0.10;;;18.20;50.80;;;;;;5093431;28;20190;-46
2023/10/22 10:28:06;;;;;;;0.10;0.10;;;18.20;50.70;;;;;;5090487;28;20219;-45
2023/10/22 10:30:40;;;;;;;0.10;0.10;;;18.20;50.70;;;;;;5082121;28;20186;-46
2023/10/22 10:33:14;;;;;;;0.10;0.10;;;18.20;50.70;;;;;;5093591;28;20198;-47
2023/10/22 10:35:49;;;;;;;0.10;0.10;;;18.20;50.70;;;;;;5091385;28;20653;-47
2023/10/22 10:38:24;;;;;;;0.10;0.10;;;18.20;50.70;;;;;;5092920;28;20221;-47
2023/10/22 10:40:56;;;;;;;0.10;0.10;;;18.20;50.80;;;;;;5092969;28;20233;-44
2023/10/22 10:44:04;;;;;;;0.10;0.10;;;18.20;50.80;;;;;;5088690;28;20222;-44
2023/10/22 10:46:37;;;;;;;0.10;0.10;;;18.20;50.80;;;;;;5088016;28;20557;-46
2023/10/22 10:49:08;;;;;;;0.10;0.10;;;18.20;51.20;;;;;;5093054;28;20222;-47
2023/10/22 10:51:38;;;;;;;0.10;0.10;;;18.20;52.70;;;;;;5092735;28;20201;-45
2023/10/22 10:54:26;;;;;;;0.10;0.10;;;18.20;53.20;;;;;;5093404;28;20190;-46
2023/10/22 10:56:58;;;;;;;0.10;0.10;;;18.30;53.10;;;;;;5092855;28;20617;-45
2023/10/22 10:59:36;;;;;;;0.03;0.03;;;18.30;52.80;;;;;;5092162;28;20255;-46
2023/10/22 11:02:10;;;;;;;0.10;0.10;;;18.30;52.50;;;;;;5072540;28;20217;-47
2023/10/22 11:04:47;;;;;;;0.10;0.10;;;18.30;52.30;;;;;;5076506;28;20205;-47
2023/10/22 11:07:20;;;;;;;0.10;0.10;;;18.30;52.20;;;;;;5080334;28;20279;-46
2023/10/22 11:09:52;;;;;;;0.00;0.00;;;18.30;52.10;;;;;;5093622;28;20682;-43
2023/10/22 11:12:24;;;;;;;0.10;0.10;;;18.30;52.10;;;;;;5113437;28;20194;-46
2023/10/22 11:14:57;;;;;;;0.05;0.05;;;18.30;52.10;;;;;;5112258;28;20225;-44
2023/10/22 11:17:30;;;;;;;0.10;0.10;;;18.30;52.10;;;;;;5110865;28;20193;-44
2023/10/22 11:20:01;;;;;;;0.10;0.10;;;18.30;52.10;;;;;;5092025;28;20220;-46
2023/10/22 11:22:31;;;;;;;0.00;0.00;;;18.30;52.10;;;;;;5093017;28;20205;-46
2023/10/22 11:25:04;;;;;;;0.10;0.10;;;18.30;52.10;;;;;;5091629;28;20198;-45
2023/10/22 11:27:38;;;;;;;0.10;0.10;;;18.30;52.20;;;;;;5088696;28;20413;-46
2023/10/22 11:30:10;;;;;;;0.10;0.10;;;18.30;52.20;;;;;;5081578;28;20256;-46
2023/10/22 11:32:50;;;;;;;0.10;0.10;;;18.30;52.20;;;;;;5091547;28;20319;-46
2023/10/22 11:35:31;;;;;;;0.10;0.10;;;18.30;52.30;;;;;;5076613;28;20272;-44
2023/10/22 11:38:01;;;;;;;0.00;0.00;;;18.30;52.30;;;;;;5091432;28;20298;-46
2023/10/22 11:40:34;;;;;;;0.10;0.10;;;18.30;52.20;;;;;;5092251;28;20186;-44
2023/10/22 11:43:15;;;;;;;0.10;0.10;;;18.30;52.20;;;;;;5092107;28;20217;-47
2023/10/22 11:45:53;;;;;;;0.10;0.10;;;18.30;52.30;;;;;;5093428;28;20190;-46
2023/10/22 11:48:26;;;;;;;0.10;0.10;;;18.30;52.30;;;;;;5091487;28;20217;-47
2023/10/22 11:51:00;;;;;;;0.10;0.10;;;18.20;52.30;;;;;;5092391;28;20185;-46
2023/10/22 11:53:41;;;;;;;0.10;0.10;;;18.20;52.30;;;;;;5091138;28;20201;-44
2023/10/22 11:56:12;;;;;;;0.10;0.10;;;18.20;52.30;;;;;;5092538;28;20730;-44
2023/10/22 11:58:44;;;;;;;0.10;0.10;;;18.20;52.30;;;;;;5090784;28;20214;-46
2023/10/22 12:01:14;;;;;;;0.10;0.10;;;18.20;52.20;;;;;;5091944;28;20186;-46
2023/10/22 12:03:47;;;;;;;0.17;0.17;;;18.20;52.20;;;;;;5091392;28;20226;-47
2023/10/22 12:06:17;;;;;;;0.10;0.10;;;18.20;52.20;;;;;;5091819;28;20209;-47
2023/10/22 12:08:48;;;;;;;0.10;0.10;;;18.20;52.20;;;;;;5091633;28;20686;-46
2023/10/22 12:11:19;;;;;;;0.10;0.10;;;18.20;52.20;;;;;;5091703;28;20552;-46
2023/10/22 12:13:49;;;;;;;0.10;0.10;;;18.20;52.20;;;;;;5091725;28;20194;-46
2023/10/22 12:16:20;;;;;;;0.10;0.10;;;18.10;52.20;;;;;;5091973;28;20202;-47
2023/10/22 12:18:52;;;;;;;0.15;0.15;;;18.10;52.20;;;;;;5091645;28;20210;-46
2023/10/22 12:21:24;;;;;;;0.10;0.10;;;18.10;52.20;;;;;;5091817;28;20205;-46
2023/10/22 12:23:54;;;;;;;0.10;0.10;;;18.10;52.20;;;;;;5091648;28;20221;-44
2023/10/22 12:26:25;;;;;;;0.00;0.00;;;18.10;52.20;;;;;;5091859;28;20205;-46
2023/10/22 12:28:56;;;;;;;0.10;0.10;;;18.10;52.10;;;;;;5091857;28;20220;-46
2023/10/22 12:31:26;;;;;;;0.10;0.10;;;18.10;52.10;;;;;;5092257;28;20198;-45
2023/10/22 12:33:59;;;;;;;0.10;0.10;;;18.10;52.10;;;;;;5090315;28;20230;-47
2023/10/22 12:36:30;;;;;;;0.10;0.10;;;18.10;52.00;;;;;;5089742;28;20201;-46
2023/10/22 12:39:01;;;;;;;0.00;0.00;;;18.10;52.00;;;;;;5091560;28;20259;-44
2023/10/22 12:41:31;;;;;;;0.10;0.10;;;18.10;52.00;;;;;;5091797;28;20194;-46
2023/10/22 12:44:03;;;;;;;0.08;0.08;;;18.10;52.00;;;;;;5091399;28;20218;-46
2023/10/22 12:46:34;;;;;;;0.10;0.10;;;18.10;52.00;;;;;;5091950;28;20190;-46
2023/10/22 12:49:06;;;;;;;0.00;0.00;;;18.00;51.90;;;;;;5091669;28;20217;-44
2023/10/22 12:51:37;;;;;;;0.10;0.10;;;18.10;51.90;;;;;;5091616;28;20592;-44
2023/10/22 12:54:08;;;;;;;0.08;0.08;;;18.10;51.90;;;;;;5091680;28;20194;-46
2023/10/22 12:56:39;;;;;;;0.00;0.00;;;18.00;51.80;;;;;;5092088;28;20198;-46
2023/10/22 12:59:10;;;;;;;0.10;0.10;;;18.00;51.80;;;;;;5091533;28;20229;-45
2023/10/22 13:01:41;;;;;;;0.00;0.00;;;18.00;51.80;;;;;;5091511;28;20194;-44
2023/10/22 13:04:13;;;;;;;0.10;0.10;;;18.00;51.80;;;;;;5081419;28;20230;-46
2023/10/22 13:06:44;;;;;;;0.00;0.00;;;18.00;51.80;;;;;;5078869;28;20681;-47
2023/10/22 13:09:15;;;;;;;0.00;0.00;;;18.00;51.80;;;;;;5095395;28;20218;-45
2023/10/22 13:11:45;;;;;;;0.00;0.00;;;18.00;51.80;;;;;;5095281;28;20237;-45